createdAt,value
2024-01-19T00:00:30.448Z,13.20
2024-01-19T00:03:03.161Z,12.90
2024-01-19T00:05:16.057Z,13.20
2024-01-19T00:07:28.777Z,13.00
2024-01-19T00:09:41.526Z,12.80
2024-01-19T00:11:56.571Z,13.60
2024-01-19T00:14:09.292Z,13.00
2024-01-19T00:16:22.021Z,12.60
2024-01-19T00:18:34.797Z,12.60
2024-01-19T00:20:47.576Z,10.90
2024-01-19T00:23:00.681Z,11.90
2024-01-19T00:25:13.559Z,11.70
2024-01-19T00:27:26.210Z,11.90
2024-01-19T00:29:39.067Z,11.50
2024-01-19T00:31:51.923Z,11.80
2024-01-19T00:34:04.576Z,12.20
2024-01-19T00:36:17.368Z,12.60
2024-01-19T00:38:30.170Z,12.80
2024-01-19T00:40:45.184Z,12.30
2024-01-19T00:42:57.936Z,12.90
2024-01-19T00:45:11.422Z,12.20
2024-01-19T00:47:24.145Z,12.50
2024-01-19T00:49:36.843Z,12.50
2024-01-19T00:51:49.691Z,12.30
2024-01-19T00:54:02.493Z,14.20
2024-01-19T00:56:17.149Z,15.10
2024-01-19T00:58:30.419Z,13.90
2024-01-19T01:00:43.347Z,16.00
2024-01-19T01:02:58.398Z,16.10
2024-01-19T01:05:11.460Z,15.70
2024-01-19T01:07:24.578Z,14.70
2024-01-19T01:09:37.430Z,13.70
2024-01-19T01:11:50.384Z,14.00
2024-01-19T01:14:04.362Z,14.20
2024-01-19T01:16:17.042Z,13.70
2024-01-19T01:18:29.956Z,14.10
2024-01-19T01:20:42.829Z,13.70
2024-01-19T01:22:55.700Z,13.10
2024-01-19T01:25:08.414Z,13.40
2024-01-19T01:27:21.173Z,12.80
2024-01-19T01:29:33.938Z,12.30
2024-01-19T01:31:46.714Z,13.10
2024-01-19T01:33:59.813Z,12.20
2024-01-19T01:36:12.585Z,13.00
2024-01-19T01:38:25.395Z,12.90
2024-01-19T01:40:38.172Z,12.30
2024-01-19T01:42:50.814Z,13.40
2024-01-19T01:45:05.178Z,13.20
2024-01-19T01:47:18.148Z,13.00
2024-01-19T01:49:30.989Z,12.80
2024-01-19T01:51:43.855Z,13.20
2024-01-19T01:53:57.751Z,13.30
2024-01-19T01:56:10.498Z,13.10
2024-01-19T01:58:23.331Z,12.50
2024-01-19T02:00:38.261Z,11.70
2024-01-19T02:02:52.787Z,11.30
2024-01-19T02:05:06.722Z,11.80
2024-01-19T02:07:19.630Z,12.00
2024-01-19T02:09:32.933Z,12.20
2024-01-19T02:11:45.847Z,11.60
2024-01-19T02:13:58.488Z,11.20
2024-01-19T02:16:11.148Z,11.30
2024-01-19T02:18:24.134Z,11.20
2024-01-19T02:20:37.009Z,11.20
2024-01-19T02:22:50.257Z,9.70
2024-01-19T02:25:03.870Z,10.10
2024-01-19T02:27:17.923Z,10.10
2024-01-19T02:29:30.697Z,10.00
2024-01-19T02:31:43.444Z,10.20
2024-01-19T02:33:56.056Z,10.10
2024-01-19T02:36:08.936Z,10.30
2024-01-19T02:38:21.649Z,9.70
2024-01-19T02:40:34.656Z,10.00
2024-01-19T02:42:47.512Z,8.60
2024-01-19T02:45:03.341Z,8.20
2024-01-19T02:47:16.112Z,7.30
2024-01-19T02:49:28.952Z,7.00
2024-01-19T02:51:41.719Z,7.20
2024-01-19T02:53:54.500Z,7.00
2024-01-19T02:56:07.367Z,7.00
2024-01-19T02:58:20.118Z,7.40
2024-01-19T03:00:32.886Z,6.50
2024-01-19T03:02:45.708Z,7.30
2024-01-19T03:04:58.562Z,6.70
2024-01-19T03:07:12.236Z,7.20
2024-01-19T03:09:24.835Z,7.10
2024-01-19T03:11:37.632Z,6.40
2024-01-19T03:13:52.658Z,7.10
2024-01-19T03:16:07.194Z,6.70
2024-01-19T03:18:20.297Z,6.60
2024-01-19T03:20:33.127Z,6.40
2024-01-19T03:22:45.912Z,6.10
2024-01-19T03:24:58.630Z,5.80
2024-01-19T03:27:11.552Z,5.80
2024-01-19T03:29:24.664Z,5.80
2024-01-19T03:31:37.381Z,6.00
2024-01-19T03:33:50.402Z,6.00
2024-01-19T03:36:03.782Z,6.00
2024-01-19T03:38:17.206Z,6.10
2024-01-19T03:40:29.989Z,6.30
2024-01-19T03:42:42.710Z,6.20
2024-01-19T03:44:55.486Z,6.30
2024-01-19T03:47:08.151Z,6.20
2024-01-19T03:49:21.334Z,6.50
2024-01-19T03:51:34.113Z,6.30
2024-01-19T03:53:46.820Z,6.60
2024-01-19T03:55:59.562Z,6.80
2024-01-19T03:58:12.312Z,6.80
2024-01-19T04:00:25.031Z,6.70
2024-01-19T04:02:37.649Z,6.70
2024-01-19T04:04:50.522Z,6.90
2024-01-19T04:07:03.611Z,7.20
2024-01-19T04:09:19.451Z,7.20
2024-01-19T04:11:34.598Z,7.50
2024-01-19T04:13:47.357Z,8.10
2024-01-19T04:16:00.053Z,7.90
2024-01-19T04:18:12.862Z,8.10
2024-01-19T04:20:25.639Z,8.90
2024-01-19T04:22:38.698Z,9.70
2024-01-19T04:24:51.319Z,11.80
2024-01-19T04:27:04.284Z,12.20
2024-01-19T04:29:17.090Z,11.30
2024-01-19T04:31:29.813Z,11.70
2024-01-19T04:33:42.702Z,11.30
2024-01-19T04:35:55.459Z,12.40
2024-01-19T04:38:08.153Z,10.70
2024-01-19T04:40:20.900Z,10.20
2024-01-19T04:42:33.902Z,9.90
2024-01-19T04:44:46.604Z,10.30
2024-01-19T04:46:59.272Z,9.70
2024-01-19T04:49:12.131Z,9.80
2024-01-19T04:51:24.887Z,9.60
2024-01-19T04:53:37.697Z,9.50
2024-01-19T04:55:50.554Z,9.90
2024-01-19T04:58:03.372Z,10.40
2024-01-19T05:00:16.518Z,10.60
2024-01-19T05:02:31.006Z,11.00
2024-01-19T05:04:43.822Z,10.90
2024-01-19T05:06:56.532Z,11.00
2024-01-19T05:09:09.398Z,10.60
2024-01-19T05:11:22.280Z,10.90
2024-01-19T05:13:34.988Z,11.10
2024-01-19T05:15:47.719Z,11.10
2024-01-19T05:18:01.900Z,10.10
2024-01-19T05:20:14.934Z,10.80
2024-01-19T05:22:27.730Z,10.20
2024-01-19T05:24:44.767Z,11.10
2024-01-19T05:26:57.547Z,11.30
2024-01-19T05:29:10.253Z,11.30
2024-01-19T05:31:23.093Z,10.90
2024-01-19T05:33:38.660Z,11.40
2024-01-19T05:35:52.604Z,10.70
2024-01-19T05:38:05.392Z,10.20
2024-01-19T05:40:19.865Z,10.70
2024-01-19T05:42:32.953Z,10.90
2024-01-19T05:44:46.351Z,11.60
2024-01-19T05:46:59.164Z,11.60
2024-01-19T05:49:11.940Z,12.00
2024-01-19T05:51:24.859Z,12.00
2024-01-19T05:53:37.723Z,12.80
2024-01-19T05:55:50.605Z,12.70
2024-01-19T05:58:04.556Z,13.80
2024-01-19T06:00:17.513Z,15.20
2024-01-19T06:02:30.244Z,14.60
2024-01-19T06:04:43.069Z,14.50
2024-01-19T06:06:56.245Z,14.90
2024-01-19T06:09:09.304Z,14.60
2024-01-19T06:11:22.103Z,14.00
2024-01-19T06:13:35.568Z,14.50
2024-01-19T06:15:48.299Z,13.40
2024-01-19T06:18:01.020Z,14.00
2024-01-19T06:20:13.784Z,13.20
2024-01-19T06:22:26.529Z,13.00
2024-01-19T06:24:39.192Z,12.90
2024-01-19T06:26:51.895Z,13.70
2024-01-19T06:29:04.553Z,14.10
2024-01-19T06:31:17.301Z,14.00
2024-01-19T06:33:29.975Z,14.30
2024-01-19T06:35:43.028Z,13.30
2024-01-19T06:37:55.815Z,13.50
2024-01-19T06:40:09.059Z,12.60
2024-01-19T06:42:22.517Z,12.90
2024-01-19T06:44:35.282Z,13.80
2024-01-19T06:46:54.797Z,15.90
2024-01-19T06:49:07.751Z,17.70
2024-01-19T06:51:22.804Z,18.70
2024-01-19T06:53:38.728Z,19.00
2024-01-19T06:55:51.890Z,18.60
2024-01-19T06:58:04.625Z,16.60
2024-01-19T07:00:19.709Z,15.90
2024-01-19T07:02:32.447Z,17.60
2024-01-19T07:04:45.428Z,17.80
2024-01-19T07:06:58.425Z,20.60
2024-01-19T07:09:11.496Z,23.70
2024-01-19T07:11:24.197Z,17.80
2024-01-19T07:13:37.181Z,17.00
2024-01-19T07:15:49.979Z,15.50
2024-01-19T07:18:03.941Z,15.50
2024-01-19T07:20:16.836Z,14.70
2024-01-19T07:22:30.320Z,14.90
2024-01-19T07:24:43.032Z,15.40
2024-01-19T07:26:55.986Z,15.60
2024-01-19T07:29:12.504Z,15.90
2024-01-19T07:31:25.810Z,15.00
2024-01-19T07:33:38.554Z,15.30
2024-01-19T07:35:51.437Z,16.80
2024-01-19T07:38:05.110Z,17.40
2024-01-19T07:40:17.848Z,15.50
2024-01-19T07:42:30.735Z,17.30
2024-01-19T07:44:43.580Z,17.00
2024-01-19T07:46:56.371Z,18.00
2024-01-19T07:49:09.349Z,18.30
2024-01-19T07:51:23.291Z,19.50
2024-01-19T07:53:36.062Z,18.20
2024-01-19T07:55:48.944Z,17.50
2024-01-19T07:58:03.953Z,17.60
2024-01-19T08:00:17.304Z,16.20
2024-01-19T08:02:30.076Z,18.50
2024-01-19T08:04:43.737Z,17.40
2024-01-19T08:06:57.270Z,15.60
2024-01-19T08:09:12.533Z,15.80
2024-01-19T08:11:25.194Z,16.70
2024-01-19T08:13:38.212Z,16.80
2024-01-19T08:15:50.911Z,16.60
2024-01-19T08:18:03.892Z,19.50
2024-01-19T08:20:16.783Z,16.50
2024-01-19T08:22:29.533Z,16.60
2024-01-19T08:24:42.287Z,15.80
2024-01-19T08:26:55.122Z,15.60
2024-01-19T08:29:07.817Z,16.30
2024-01-19T08:31:20.572Z,16.10
2024-01-19T08:33:33.507Z,15.80
2024-01-19T08:35:47.238Z,17.00
2024-01-19T08:37:59.935Z,17.00
2024-01-19T08:40:13.392Z,16.60
2024-01-19T08:42:26.191Z,16.80
2024-01-19T08:44:39.067Z,17.40
2024-01-19T08:46:51.733Z,17.80
2024-01-19T08:49:04.601Z,17.80
2024-01-19T08:51:21.736Z,17.30
2024-01-19T08:53:34.507Z,17.80
2024-01-19T08:55:47.281Z,17.40
2024-01-19T08:58:00.213Z,17.90
2024-01-19T09:00:13.666Z,17.60
2024-01-19T09:02:26.674Z,19.00
2024-01-19T09:04:39.827Z,19.30
2024-01-19T09:06:53.029Z,19.40
2024-01-19T09:09:05.943Z,19.40
2024-01-19T09:11:18.727Z,19.50
2024-01-19T09:13:31.471Z,19.40
2024-01-19T09:15:44.182Z,19.80
2024-01-19T09:17:57.247Z,18.00
2024-01-19T09:20:10.629Z,18.30
2024-01-19T09:22:23.391Z,17.20
2024-01-19T09:24:36.189Z,18.40
2024-01-19T09:26:49.123Z,16.90
2024-01-19T09:29:02.000Z,20.10
2024-01-19T09:31:15.964Z,18.40
2024-01-19T09:33:28.754Z,17.10
2024-01-19T09:35:42.326Z,17.20
2024-01-19T09:37:55.671Z,17.40
2024-01-19T09:40:09.490Z,17.30
2024-01-19T09:42:32.315Z,18.10
2024-01-19T09:44:56.452Z,17.70
2024-01-19T09:47:22.261Z,18.20
2024-01-19T09:49:56.308Z,17.10
2024-01-19T09:52:28.067Z,22.00
2024-01-19T09:54:41.479Z,21.90
2024-01-19T09:56:54.307Z,20.00
2024-01-19T09:59:08.621Z,16.00
2024-01-19T10:01:22.673Z,15.50
2024-01-19T10:03:37.288Z,14.10
2024-01-19T10:05:52.363Z,14.10
2024-01-19T10:08:06.102Z,12.70
2024-01-19T10:10:20.521Z,12.90
2024-01-19T10:12:34.839Z,12.40
2024-01-19T10:14:47.446Z,13.50
2024-01-19T10:17:00.612Z,13.10
2024-01-19T10:19:14.347Z,12.80
2024-01-19T10:21:30.464Z,12.80
2024-01-19T10:23:44.439Z,13.20
2024-01-19T10:26:13.939Z,13.40
2024-01-19T10:28:36.278Z,13.80
2024-01-19T10:30:49.013Z,12.00
2024-01-19T10:33:07.152Z,11.00
2024-01-19T10:35:23.953Z,9.90
2024-01-19T10:37:36.776Z,9.60
2024-01-19T10:39:49.407Z,9.50
2024-01-19T10:42:09.207Z,8.90
2024-01-19T10:44:22.948Z,9.50
2024-01-19T10:46:35.739Z,9.30
2024-01-19T10:48:51.579Z,9.10
2024-01-19T10:51:04.864Z,9.50
2024-01-19T10:53:17.700Z,9.10
2024-01-19T10:55:32.629Z,9.00
2024-01-19T10:57:46.419Z,8.90
2024-01-19T10:59:59.094Z,8.50
2024-01-19T11:02:12.072Z,8.90
2024-01-19T11:04:25.239Z,8.70
2024-01-19T11:06:39.405Z,8.10
2024-01-19T11:08:52.315Z,8.40
2024-01-19T11:11:06.829Z,12.50
2024-01-19T11:13:24.047Z,14.10
2024-01-19T11:15:44.620Z,12.10
2024-01-19T11:18:02.909Z,15.30
2024-01-19T11:20:15.834Z,13.40
2024-01-19T11:22:28.463Z,10.20
2024-01-19T11:24:43.597Z,10.90
2024-01-19T11:27:15.437Z,10.60
2024-01-19T11:29:39.767Z,10.30
2024-01-19T11:31:53.072Z,8.30
2024-01-19T11:34:06.807Z,9.30
2024-01-19T11:36:42.225Z,9.10
2024-01-19T11:38:55.025Z,8.20
2024-01-19T11:41:07.714Z,6.50
2024-01-19T11:43:37.007Z,5.80
2024-01-19T11:45:49.782Z,6.00
2024-01-19T11:48:02.593Z,5.20
2024-01-19T11:50:16.820Z,5.60
2024-01-19T11:52:36.512Z,5.40
2024-01-19T11:54:50.507Z,5.20
2024-01-19T11:57:23.976Z,4.80
2024-01-19T11:59:37.848Z,5.00
2024-01-19T12:01:50.907Z,5.30
2024-01-19T12:04:04.022Z,5.10
2024-01-19T12:06:17.234Z,5.00
2024-01-19T12:08:30.214Z,4.50
2024-01-19T12:10:46.506Z,4.20
2024-01-19T12:12:59.279Z,4.20
2024-01-19T12:15:12.676Z,4.10
2024-01-19T12:17:25.662Z,3.80
2024-01-19T12:19:38.362Z,3.90
2024-01-19T12:21:51.172Z,4.00
2024-01-19T12:24:04.411Z,4.10
2024-01-19T12:26:21.712Z,4.50
2024-01-19T12:28:34.958Z,4.50
2024-01-19T12:30:47.774Z,5.30
2024-01-19T12:33:15.867Z,4.30
2024-01-19T12:35:28.657Z,4.10
2024-01-19T12:37:41.558Z,4.20
2024-01-19T12:39:54.614Z,4.20
2024-01-19T12:42:08.015Z,4.30
2024-01-19T12:44:23.365Z,4.20
2024-01-19T12:46:36.182Z,4.60
2024-01-19T12:49:00.683Z,14.10
2024-01-19T12:51:15.332Z,21.40
2024-01-19T12:53:28.290Z,5.70
2024-01-19T12:55:41.053Z,4.30
2024-01-19T12:57:53.865Z,4.30
2024-01-19T13:00:07.815Z,4.60
2024-01-19T13:02:20.603Z,5.50
2024-01-19T13:04:34.576Z,4.30
2024-01-19T13:06:47.581Z,4.50
2024-01-19T13:09:01.250Z,4.50
2024-01-19T13:11:14.045Z,4.70
2024-01-19T13:13:28.394Z,5.10
2024-01-19T13:15:41.098Z,4.50
2024-01-19T13:18:19.302Z,4.40
2024-01-19T13:20:33.809Z,4.60
2024-01-19T13:22:46.556Z,4.30
2024-01-19T13:24:59.202Z,4.40
2024-01-19T13:27:12.817Z,4.40
2024-01-19T13:29:25.630Z,4.10
2024-01-19T13:31:38.471Z,4.10
2024-01-19T13:33:51.189Z,4.00
2024-01-19T13:36:04.507Z,4.20
2024-01-19T13:38:21.387Z,4.00
2024-01-19T13:40:38.904Z,4.10
2024-01-19T13:42:52.151Z,3.70
2024-01-19T13:45:09.835Z,4.20
2024-01-19T13:47:22.473Z,4.20
2024-01-19T13:49:35.667Z,4.60
2024-01-19T13:51:48.392Z,3.90
2024-01-19T13:54:01.026Z,3.60
2024-01-19T13:56:13.759Z,4.10
2024-01-19T13:58:26.587Z,3.70
2024-01-19T14:00:39.471Z,5.70
2024-01-19T14:02:53.393Z,10.00
2024-01-19T14:05:06.606Z,10.50
2024-01-19T14:07:21.349Z,4.80
2024-01-19T14:09:35.540Z,4.10
2024-01-19T14:11:49.230Z,4.00
2024-01-19T14:14:03.358Z,3.90
2024-01-19T14:16:16.303Z,3.90
2024-01-19T14:18:34.098Z,4.20
2024-01-19T14:20:50.355Z,3.90
2024-01-19T14:23:05.069Z,4.20
2024-01-19T14:25:17.853Z,4.40
2024-01-19T14:27:30.616Z,4.60
2024-01-19T14:29:44.723Z,4.80
2024-01-19T14:31:58.005Z,4.30
2024-01-19T14:34:13.172Z,4.30
2024-01-19T14:36:26.092Z,4.50
2024-01-19T14:38:39.498Z,5.50
2024-01-19T14:40:52.302Z,4.80
2024-01-19T14:43:05.281Z,4.30
2024-01-19T14:45:18.083Z,4.40
2024-01-19T14:47:30.863Z,4.70
2024-01-19T14:49:51.174Z,4.70
2024-01-19T14:52:06.322Z,5.10
2024-01-19T14:54:19.613Z,4.70
2024-01-19T14:56:32.596Z,4.60
2024-01-19T14:58:45.291Z,4.60
2024-01-19T15:00:58.059Z,4.80
2024-01-19T15:03:10.832Z,4.90
2024-01-19T15:05:24.900Z,6.40
2024-01-19T15:07:37.625Z,6.30
2024-01-19T15:09:53.051Z,5.60
2024-01-19T15:12:06.272Z,6.00
2024-01-19T15:14:19.123Z,5.40
2024-01-19T15:16:31.788Z,6.40
2024-01-19T15:18:45.102Z,6.10
2024-01-19T15:20:57.991Z,8.00
2024-01-19T15:23:10.903Z,6.90
2024-01-19T15:25:24.128Z,6.60
2024-01-19T15:27:40.089Z,5.80
2024-01-19T15:29:52.724Z,5.70
2024-01-19T15:32:05.607Z,6.60
2024-01-19T15:34:18.381Z,8.50
2024-01-19T15:36:31.194Z,8.40
2024-01-19T15:38:43.905Z,8.80
2024-01-19T15:40:57.029Z,7.00
2024-01-19T15:43:09.840Z,8.60
2024-01-19T15:45:23.597Z,11.90
2024-01-19T15:47:38.430Z,9.70
2024-01-19T15:49:51.347Z,9.80
2024-01-19T15:52:05.200Z,8.30
2024-01-19T15:54:20.181Z,7.30
2024-01-19T15:56:37.472Z,6.80
2024-01-19T15:58:51.644Z,6.50
2024-01-19T16:01:04.466Z,5.90
2024-01-19T16:03:17.148Z,6.80
2024-01-19T16:05:30.046Z,6.40
2024-01-19T16:07:42.919Z,7.20
2024-01-19T16:09:55.655Z,5.80
2024-01-19T16:12:08.467Z,7.10
2024-01-19T16:14:21.347Z,8.20
2024-01-19T16:16:35.212Z,8.20
2024-01-19T16:18:47.985Z,7.70
2024-01-19T16:21:00.845Z,6.90
2024-01-19T16:23:13.982Z,6.60
2024-01-19T16:25:26.626Z,7.40
2024-01-19T16:27:39.303Z,6.80
2024-01-19T16:29:52.001Z,6.60
2024-01-19T16:32:05.188Z,6.60
2024-01-19T16:34:18.615Z,8.80
2024-01-19T16:36:31.336Z,7.60
2024-01-19T16:38:46.349Z,7.60
2024-01-19T16:40:59.497Z,7.20
2024-01-19T16:43:12.314Z,7.80
2024-01-19T16:45:25.049Z,7.50
2024-01-19T16:47:38.697Z,7.50
2024-01-19T16:49:51.649Z,7.80
2024-01-19T16:52:04.685Z,7.60
2024-01-19T16:54:17.313Z,8.30
2024-01-19T16:56:33.301Z,8.20
2024-01-19T16:58:47.506Z,8.90
2024-01-19T17:01:02.342Z,8.40
2024-01-19T17:03:17.573Z,6.90
2024-01-19T17:05:30.691Z,7.40
2024-01-19T17:07:43.962Z,8.40
2024-01-19T17:09:56.919Z,7.50
2024-01-19T17:12:09.681Z,7.90
2024-01-19T17:14:22.561Z,7.80
2024-01-19T17:16:39.548Z,8.20
2024-01-19T17:18:52.339Z,8.40
2024-01-19T17:21:05.161Z,8.30
2024-01-19T17:23:18.018Z,7.70
2024-01-19T17:25:30.929Z,7.40
2024-01-19T17:27:43.963Z,8.30
2024-01-19T17:29:57.027Z,7.50
2024-01-19T17:32:10.403Z,7.60
2024-01-19T17:34:23.666Z,8.00
2024-01-19T17:36:36.929Z,7.10
2024-01-19T17:38:50.143Z,7.90
2024-01-19T17:41:03.051Z,7.70
2024-01-19T17:43:15.997Z,7.70
2024-01-19T17:45:28.660Z,6.40
2024-01-19T17:47:42.545Z,8.20
2024-01-19T17:49:55.457Z,11.10
2024-01-19T17:52:10.117Z,9.30
2024-01-19T17:54:23.064Z,10.50
2024-01-19T17:56:37.382Z,9.30
2024-01-19T17:58:50.110Z,8.60
2024-01-19T18:01:03.013Z,10.40
2024-01-19T18:03:15.786Z,8.60
2024-01-19T18:05:28.805Z,8.80
2024-01-19T18:07:41.721Z,8.30
2024-01-19T18:09:55.024Z,8.30
2024-01-19T18:12:08.935Z,7.80
2024-01-19T18:14:25.403Z,8.60
2024-01-19T18:16:38.343Z,8.20
2024-01-19T18:18:51.662Z,8.40
2024-01-19T18:21:04.947Z,8.90
2024-01-19T18:23:17.980Z,8.30
2024-01-19T18:25:30.873Z,9.10
2024-01-19T18:27:43.781Z,8.60
2024-01-19T18:29:56.650Z,8.30
2024-01-19T18:32:09.960Z,9.00
2024-01-19T18:34:23.248Z,9.40
2024-01-19T18:36:39.527Z,9.90
2024-01-19T18:38:52.214Z,11.20
2024-01-19T18:41:05.031Z,11.60
2024-01-19T18:43:17.801Z,12.00
2024-01-19T18:45:30.584Z,10.30
2024-01-19T18:47:43.434Z,11.20
2024-01-19T18:49:56.295Z,11.50
2024-01-19T18:52:09.212Z,11.40
2024-01-19T18:54:22.131Z,10.40
2024-01-19T18:56:34.928Z,10.70
2024-01-19T18:58:47.795Z,12.30
2024-01-19T19:01:00.533Z,11.00
2024-01-19T19:03:13.541Z,11.70
2024-01-19T19:05:26.359Z,11.80
2024-01-19T19:07:39.364Z,13.30
2024-01-19T19:09:52.282Z,12.70
2024-01-19T19:12:05.794Z,12.20
2024-01-19T19:14:21.564Z,13.40
2024-01-19T19:16:40.842Z,12.90
2024-01-19T19:18:59.231Z,14.10
2024-01-19T19:21:16.675Z,14.00
2024-01-19T19:23:29.460Z,11.70
2024-01-19T19:25:42.400Z,12.50
2024-01-19T19:27:58.658Z,12.70
2024-01-19T19:30:11.780Z,10.90
2024-01-19T19:32:24.791Z,11.40
2024-01-19T19:34:37.816Z,11.60
2024-01-19T19:36:50.633Z,11.00
2024-01-19T19:39:07.027Z,11.30
2024-01-19T19:41:19.943Z,12.50
2024-01-19T19:43:33.150Z,14.70
2024-01-19T19:45:45.971Z,13.60
2024-01-19T19:47:58.738Z,12.30
2024-01-19T19:50:11.441Z,11.50
2024-01-19T19:52:24.237Z,13.60
2024-01-19T19:54:37.533Z,14.50
2024-01-19T19:56:50.664Z,13.70
2024-01-19T19:59:03.436Z,12.80
2024-01-19T20:01:16.400Z,11.60
2024-01-19T20:03:29.787Z,10.40
2024-01-19T20:05:43.641Z,11.00
2024-01-19T20:07:56.327Z,10.60
2024-01-19T20:10:09.995Z,9.80
2024-01-19T20:12:23.075Z,10.10
2024-01-19T20:14:35.835Z,11.70
2024-01-19T20:16:48.835Z,10.20
2024-01-19T20:19:01.718Z,11.20
2024-01-19T20:21:14.500Z,10.70
2024-01-19T20:23:27.694Z,10.60
2024-01-19T20:25:40.696Z,9.10
2024-01-19T20:27:53.914Z,10.10
2024-01-19T20:30:08.091Z,10.20
2024-01-19T20:32:21.037Z,9.10
2024-01-19T20:34:34.012Z,10.60
2024-01-19T20:36:46.897Z,9.10
2024-01-19T20:38:59.707Z,9.00
2024-01-19T20:41:13.729Z,9.20
2024-01-19T20:43:26.539Z,10.70
2024-01-19T20:45:39.200Z,10.30
2024-01-19T20:47:51.963Z,11.70
2024-01-19T20:50:05.564Z,13.80
2024-01-19T20:52:18.677Z,15.60
2024-01-19T20:54:33.736Z,15.50
2024-01-19T20:56:46.595Z,17.40
2024-01-19T20:59:00.124Z,17.60
2024-01-19T21:01:13.004Z,15.40
2024-01-19T21:03:26.759Z,16.60
2024-01-19T21:05:39.884Z,15.80
2024-01-19T21:07:55.556Z,13.50
2024-01-19T21:10:12.327Z,12.50
2024-01-19T21:12:26.172Z,12.60
2024-01-19T21:14:39.271Z,11.10
2024-01-19T21:16:52.146Z,11.70
2024-01-19T21:19:08.527Z,11.10
2024-01-19T21:21:22.303Z,9.00
2024-01-19T21:23:35.541Z,9.30
2024-01-19T21:25:48.679Z,8.80
2024-01-19T21:28:03.100Z,9.70
2024-01-19T21:30:16.232Z,8.40
2024-01-19T21:32:29.040Z,8.80
2024-01-19T21:34:42.011Z,8.30
2024-01-19T21:36:54.808Z,8.50
2024-01-19T21:39:07.565Z,8.40
2024-01-19T21:41:21.247Z,8.30
2024-01-19T21:43:34.337Z,8.60
2024-01-19T21:45:47.121Z,8.40
2024-01-19T21:48:00.021Z,8.80
2024-01-19T21:50:14.113Z,9.00
2024-01-19T21:52:27.433Z,9.70
2024-01-19T21:54:40.275Z,10.10
2024-01-19T21:56:53.348Z,9.40
2024-01-19T21:59:06.538Z,11.10
2024-01-19T22:01:21.322Z,11.00
2024-01-19T22:03:34.745Z,10.60
2024-01-19T22:05:49.816Z,11.50
2024-01-19T22:08:03.934Z,10.70
2024-01-19T22:10:16.875Z,10.60
2024-01-19T22:12:30.346Z,11.20
2024-01-19T22:14:43.093Z,10.80
2024-01-19T22:16:56.219Z,10.50
2024-01-19T22:19:09.078Z,10.30
2024-01-19T22:21:22.720Z,9.70
2024-01-19T22:23:39.658Z,10.30
2024-01-19T22:25:52.427Z,10.80
2024-01-19T22:28:06.635Z,10.40
2024-01-19T22:30:24.199Z,10.40
2024-01-19T22:32:37.262Z,11.70
2024-01-19T22:34:50.205Z,12.50
2024-01-19T22:37:03.050Z,12.80
2024-01-19T22:39:16.750Z,11.50
2024-01-19T22:41:29.840Z,11.00
2024-01-19T22:43:43.102Z,9.40
2024-01-19T22:45:58.144Z,10.30
2024-01-19T22:48:11.007Z,10.40
2024-01-19T22:50:23.816Z,11.80
2024-01-19T22:52:38.514Z,10.50
2024-01-19T22:54:51.402Z,9.50
2024-01-19T22:57:05.179Z,9.50
2024-01-19T22:59:17.940Z,9.20
2024-01-19T23:01:30.798Z,8.10
2024-01-19T23:03:43.747Z,7.50
2024-01-19T23:05:56.830Z,6.70
2024-01-19T23:08:09.767Z,6.70
2024-01-19T23:10:22.478Z,6.50
2024-01-19T23:12:36.231Z,6.10
2024-01-19T23:14:49.010Z,6.00
2024-01-19T23:17:01.808Z,5.90
2024-01-19T23:19:20.421Z,5.20
2024-01-19T23:21:35.350Z,5.20
2024-01-19T23:23:48.215Z,6.00
2024-01-19T23:26:01.497Z,5.70
2024-01-19T23:28:14.458Z,4.90
2024-01-19T23:30:27.390Z,5.60
2024-01-19T23:32:40.253Z,5.00
2024-01-19T23:34:53.017Z,5.90
2024-01-19T23:37:05.729Z,6.10
2024-01-19T23:39:19.056Z,6.20
2024-01-19T23:41:31.953Z,6.00
2024-01-19T23:43:44.745Z,6.50
2024-01-19T23:45:57.886Z,6.60
2024-01-19T23:48:10.762Z,5.90
2024-01-19T23:50:24.242Z,6.40
2024-01-19T23:52:37.234Z,6.20
2024-01-19T23:54:50.111Z,6.70
2024-01-19T23:57:03.051Z,7.50
2024-01-19T23:59:15.798Z,7.80
